createdAt,value
2022-08-28T00:01:57.695Z,100898.13
2022-08-28T00:04:24.258Z,100913.16
2022-08-28T00:06:50.822Z,100894.34
2022-08-28T00:09:17.800Z,100896.63
2022-08-28T00:11:44.348Z,100900.38
2022-08-28T00:14:11.114Z,100889.88
2022-08-28T00:16:38.051Z,100916.88
2022-08-28T00:19:05.193Z,100906.84
2022-08-28T00:21:33.253Z,100918.31
2022-08-28T00:24:00.721Z,100895.84
2022-08-28T00:26:46.443Z,100914.81
2022-08-28T00:29:12.989Z,100922.41
2022-08-28T00:31:39.712Z,100916.91
2022-08-28T00:34:09.541Z,100927.03
2022-08-28T00:36:37.317Z,100912.72
2022-08-28T00:39:06.129Z,100905.56
2022-08-28T00:41:35.164Z,100920.56
2022-08-28T00:44:22.706Z,100915.50
2022-08-28T00:46:51.801Z,100889.88
2022-08-28T00:49:22.689Z,100919.00
2022-08-28T00:52:12.088Z,100906.69
2022-08-28T00:54:45.714Z,100913.00
2022-08-28T00:57:32.724Z,100899.47
2022-08-28T00:59:59.575Z,100901.78
2022-08-28T01:02:27.591Z,100919.28
2022-08-28T01:04:55.134Z,100920.53
2022-08-28T01:07:23.343Z,100888.56
2022-08-28T01:09:54.153Z,100924.81
2022-08-28T01:12:28.812Z,100907.38
2022-08-28T01:15:00.102Z,100904.94
2022-08-28T01:17:31.352Z,100923.16
2022-08-28T01:20:03.030Z,100901.78
2022-08-28T01:22:38.381Z,100927.72
2022-08-28T01:25:10.590Z,100919.22
2022-08-28T01:27:37.226Z,100881.31
2022-08-28T01:30:04.908Z,100933.06
2022-08-28T01:32:43.722Z,100902.78
2022-08-28T01:35:19.024Z,100913.78
2022-08-28T01:37:46.336Z,100930.97
2022-08-28T01:40:17.732Z,100898.13
2022-08-28T01:42:45.144Z,100906.59
2022-08-28T01:45:15.162Z,100902.13
2022-08-28T01:47:43.641Z,100929.66
2022-08-28T01:50:12.383Z,100917.91
2022-08-28T01:52:39.714Z,100929.75
2022-08-28T01:55:08.133Z,100915.19
2022-08-28T01:57:35.393Z,100900.91
2022-08-28T02:00:02.012Z,100906.28
2022-08-28T02:02:28.842Z,100911.09
2022-08-28T02:04:55.333Z,100913.09
2022-08-28T02:07:21.826Z,100901.25
2022-08-28T02:09:48.447Z,100904.88
2022-08-28T02:12:15.003Z,100917.34
2022-08-28T02:14:41.574Z,100915.66
2022-08-28T02:17:08.051Z,100929.59
2022-08-28T02:19:34.628Z,100904.56
2022-08-28T02:22:01.078Z,100904.41
2022-08-28T02:24:27.608Z,100904.53
2022-08-28T02:26:54.127Z,100912.56
2022-08-28T02:29:20.631Z,100903.13
2022-08-28T02:31:47.094Z,100899.75
2022-08-28T02:34:13.591Z,100916.50
2022-08-28T02:36:42.241Z,100904.44
2022-08-28T02:39:09.626Z,100895.09
2022-08-28T02:41:36.337Z,100932.31
2022-08-28T02:44:03.052Z,100925.47
2022-08-28T02:46:30.035Z,100911.53
2022-08-28T02:48:59.044Z,100906.03
2022-08-28T02:51:25.819Z,100917.59
2022-08-28T02:53:52.418Z,100923.28
2022-08-28T02:56:18.911Z,100889.91
2022-08-28T02:58:45.366Z,100911.44
2022-08-28T03:01:13.606Z,100924.06
2022-08-28T03:03:41.760Z,100912.66
2022-08-28T03:06:10.856Z,100921.34
2022-08-28T03:08:37.541Z,100909.66
2022-08-28T03:11:04.248Z,100907.19
2022-08-28T03:13:30.779Z,100930.06
2022-08-28T03:15:57.616Z,100914.22
2022-08-28T03:18:27.330Z,100929.47
2022-08-28T03:20:55.539Z,100933.84
2022-08-28T03:23:28.508Z,100933.13
2022-08-28T03:25:58.669Z,100925.09
2022-08-28T03:28:27.113Z,100935.31
2022-08-28T03:30:54.492Z,100920.66
2022-08-28T03:33:21.490Z,100928.59
2022-08-28T03:35:48.949Z,100939.03
2022-08-28T03:38:16.924Z,100924.31
2022-08-28T03:40:46.888Z,100936.69
2022-08-28T03:43:16.691Z,100908.91
2022-08-28T03:45:52.463Z,100937.59
2022-08-28T03:48:20.169Z,100922.66
2022-08-28T03:50:47.625Z,100897.53
2022-08-28T03:53:15.894Z,100930.25
2022-08-28T03:55:42.564Z,100928.25
2022-08-28T03:58:09.502Z,100919.38
2022-08-28T04:00:36.338Z,100905.75
2022-08-28T04:03:04.590Z,100938.41
2022-08-28T04:05:31.266Z,100930.47
2022-08-28T04:07:57.724Z,100934.47
2022-08-28T04:10:24.255Z,100930.81
2022-08-28T04:12:50.728Z,100939.94
2022-08-28T04:15:17.196Z,100918.13
2022-08-28T04:17:43.891Z,100933.25
2022-08-28T04:20:11.046Z,100959.22
2022-08-28T04:22:37.935Z,100950.44
2022-08-28T04:25:06.917Z,100962.28
2022-08-28T04:27:33.854Z,100962.13
2022-08-28T04:30:00.573Z,100954.72
2022-08-28T04:32:26.985Z,100972.53
2022-08-28T04:34:54.074Z,100951.91
2022-08-28T04:37:20.611Z,100969.25
2022-08-28T04:39:49.293Z,100955.03
2022-08-28T04:42:15.739Z,100982.94
2022-08-28T04:44:42.416Z,100962.13
2022-08-28T04:47:08.855Z,100982.34
2022-08-28T04:49:35.806Z,100964.25
2022-08-28T04:52:03.050Z,100966.97
2022-08-28T04:54:29.609Z,100969.69
2022-08-28T04:56:56.071Z,100986.63
2022-08-28T04:59:22.656Z,100974.25
2022-08-28T05:01:49.483Z,100981.78
2022-08-28T05:04:17.218Z,100976.09
2022-08-28T05:06:46.262Z,100974.38
2022-08-28T05:09:18.530Z,100977.94
2022-08-28T05:11:46.502Z,100991.44
2022-08-28T05:14:16.202Z,100970.50
2022-08-28T05:16:45.534Z,100986.88
2022-08-28T05:19:12.614Z,101000.56
2022-08-28T05:21:39.190Z,100974.91
2022-08-28T05:24:06.906Z,101003.25
2022-08-28T05:26:34.740Z,101007.25
2022-08-28T05:29:01.847Z,100984.03
2022-08-28T05:31:30.946Z,100980.50
2022-08-28T05:33:59.452Z,100990.31
2022-08-28T05:36:32.790Z,100981.81
2022-08-28T05:39:01.392Z,101008.13
2022-08-28T05:41:30.956Z,101026.19
2022-08-28T05:44:04.207Z,101013.06
2022-08-28T05:46:31.134Z,101015.50
2022-08-28T05:49:00.361Z,100994.88
2022-08-28T05:51:27.877Z,100998.94
2022-08-28T05:53:54.898Z,101023.31
2022-08-28T05:56:25.894Z,101015.81
2022-08-28T05:58:52.804Z,100993.56
2022-08-28T06:01:28.631Z,101003.16
2022-08-28T06:04:00.318Z,101005.06
2022-08-28T06:06:34.451Z,101021.13
2022-08-28T06:09:05.443Z,100987.34
2022-08-28T06:11:32.454Z,101026.69
2022-08-28T06:14:04.700Z,100994.56
2022-08-28T06:16:32.752Z,101028.94
2022-08-28T06:19:00.517Z,101025.69
2022-08-28T06:21:27.848Z,101018.59
2022-08-28T06:23:54.456Z,101001.78
2022-08-28T06:26:21.001Z,100987.69
2022-08-28T06:28:47.830Z,101021.41
2022-08-28T06:31:24.419Z,100996.53
2022-08-28T06:33:54.298Z,101006.09
2022-08-28T06:36:21.096Z,101023.69
2022-08-28T06:38:47.744Z,101021.97
2022-08-28T06:41:15.747Z,101010.47
2022-08-28T06:44:15.038Z,101045.59
2022-08-28T06:46:41.874Z,101043.81
2022-08-28T06:49:08.690Z,101042.88
2022-08-28T06:51:35.655Z,101049.25
2022-08-28T06:54:02.235Z,101032.03
2022-08-28T06:56:28.711Z,101041.28
2022-08-28T06:59:00.782Z,101048.56
2022-08-28T07:01:34.482Z,101056.78
2022-08-28T07:04:07.709Z,101050.00
2022-08-28T07:06:38.568Z,101044.03
2022-08-28T07:09:07.527Z,101046.63
2022-08-28T07:11:35.547Z,101032.91
2022-08-28T07:14:03.117Z,101047.75
2022-08-28T07:16:33.135Z,101029.72
2022-08-28T07:19:02.638Z,101060.19
2022-08-28T07:21:31.087Z,101068.00
2022-08-28T07:23:58.022Z,101066.72
2022-08-28T07:26:26.178Z,101068.72
2022-08-28T07:28:59.463Z,101086.50
2022-08-28T07:31:53.424Z,101078.28
2022-08-28T07:34:22.317Z,101094.09
2022-08-28T07:36:53.820Z,101090.09
2022-08-28T07:39:20.671Z,101080.56
2022-08-28T07:41:56.115Z,101054.34
2022-08-28T07:44:41.292Z,101081.09
2022-08-28T07:47:08.786Z,101102.06
2022-08-28T07:49:35.846Z,101110.59
2022-08-28T07:52:02.611Z,101121.53
2022-08-28T07:54:29.148Z,101113.88
2022-08-28T07:56:55.621Z,101096.19
2022-08-28T07:59:24.660Z,101108.00
2022-08-28T08:01:52.190Z,101085.38
2022-08-28T08:04:25.364Z,101114.69
2022-08-28T08:06:58.061Z,101069.84
2022-08-28T08:10:06.096Z,101128.00
2022-08-28T08:13:02.256Z,101068.97
2022-08-28T08:15:43.238Z,101074.09
2022-08-28T08:18:20.848Z,101134.91
2022-08-28T08:20:51.651Z,101124.69
2022-08-28T08:23:20.543Z,101096.00
2022-08-28T08:30:27.016Z,101102.03
2022-08-28T08:35:54.663Z,101082.97
2022-08-28T08:42:04.274Z,101122.88
2022-08-28T08:49:26.166Z,101147.06
2022-08-28T08:52:43.361Z,101146.44
2022-08-28T08:59:39.207Z,101095.66
2022-08-28T09:02:31.640Z,101094.31
2022-08-28T09:05:12.872Z,101115.53
2022-08-28T09:08:02.870Z,101127.34
2022-08-28T09:10:40.107Z,101096.09
2022-08-28T09:13:21.202Z,101107.94
2022-08-28T09:15:50.820Z,101136.00
2022-08-28T09:18:49.009Z,101127.34
2022-08-28T09:21:28.999Z,101165.09
2022-08-28T09:23:58.546Z,101163.44
2022-08-28T09:26:25.468Z,101149.38
2022-08-28T09:29:03.433Z,101158.38
2022-08-28T09:31:35.479Z,101155.69
2022-08-28T09:34:28.479Z,101165.63
2022-08-28T09:36:57.062Z,101161.06
2022-08-28T09:39:26.735Z,101155.56
2022-08-28T09:42:33.681Z,101154.25
2022-08-28T09:45:13.529Z,101161.91
2022-08-28T09:47:52.357Z,101152.06
2022-08-28T09:50:35.411Z,101175.91
2022-08-28T09:53:14.146Z,101174.84
2022-08-28T09:56:05.392Z,101177.00
2022-08-28T09:58:42.639Z,101178.19
2022-08-28T10:01:38.257Z,101157.53
2022-08-28T10:04:23.248Z,101185.31
2022-08-28T10:06:55.112Z,101164.69
2022-08-28T10:09:48.008Z,101159.22
2022-08-28T10:12:41.640Z,101186.84
2022-08-28T10:15:26.583Z,101145.34
2022-08-28T10:18:12.727Z,101193.59
2022-08-28T10:20:50.848Z,101189.16
2022-08-28T10:23:38.832Z,101167.31
2022-08-28T10:26:20.578Z,101197.88
2022-08-28T10:29:12.077Z,101198.72
2022-08-28T10:31:46.228Z,101196.38
2022-08-28T10:34:35.359Z,101152.78
2022-08-28T10:37:24.614Z,101204.72
2022-08-28T10:39:57.758Z,101172.53
2022-08-28T10:42:36.555Z,101208.69
2022-08-28T10:45:17.020Z,101193.97
2022-08-28T10:48:07.782Z,101178.16
2022-08-28T10:50:50.385Z,101199.72
2022-08-28T10:53:49.363Z,101214.84
2022-08-28T10:56:21.037Z,101194.56
2022-08-28T10:58:52.047Z,101208.06
2022-08-28T11:01:27.341Z,101216.09
2022-08-28T11:03:57.744Z,101179.84
2022-08-28T11:06:43.540Z,101227.00
2022-08-28T11:09:27.113Z,101226.25
2022-08-28T11:12:02.179Z,101229.13
2022-08-28T11:14:47.990Z,101233.09
2022-08-28T11:18:16.107Z,101231.97
2022-08-28T11:21:11.988Z,101216.25
2022-08-28T11:24:01.557Z,101214.16
2022-08-28T11:26:59.425Z,101232.81
2022-08-28T11:30:03.649Z,101241.75
2022-08-28T11:32:33.468Z,101249.97
2022-08-28T11:35:06.423Z,101236.44
2022-08-28T11:37:49.480Z,101190.09
2022-08-28T11:40:40.890Z,101215.44
2022-08-28T11:43:17.086Z,101233.03
2022-08-28T11:46:04.119Z,101244.56
2022-08-28T11:48:33.782Z,101253.84
2022-08-28T11:51:29.106Z,101213.03
2022-08-28T11:54:17.467Z,101256.31
2022-08-28T12:01:02.289Z,101242.41
2022-08-28T12:03:44.856Z,101196.91
2022-08-28T12:06:15.099Z,101233.78
2022-08-28T12:08:44.601Z,101246.19
2022-08-28T12:11:32.086Z,101209.22
2022-08-28T12:13:58.832Z,101216.66
2022-08-28T12:16:31.026Z,101241.19
2022-08-28T12:19:00.983Z,101217.94
2022-08-28T12:21:29.837Z,101223.97
2022-08-28T12:24:14.801Z,101212.28
2022-08-28T12:26:49.113Z,101212.44
2022-08-28T12:29:30.729Z,101237.66
2022-08-28T12:32:16.518Z,101242.63
2022-08-28T12:35:03.942Z,101234.47
2022-08-28T12:37:52.746Z,101242.34
2022-08-28T12:40:39.156Z,101217.16
2022-08-28T12:43:09.242Z,101238.09
2022-08-28T12:45:45.387Z,101225.84
2022-08-28T12:48:18.279Z,101227.97
2022-08-28T12:50:44.814Z,101194.19
2022-08-28T12:53:17.717Z,101239.66
2022-08-28T12:55:45.989Z,101231.25
2022-08-28T12:58:31.636Z,101236.66
2022-08-28T13:01:09.111Z,101230.69
2022-08-28T13:03:44.969Z,101234.66
2022-08-28T13:06:12.457Z,101206.31
2022-08-28T13:08:39.894Z,101194.78
2022-08-28T13:11:07.178Z,101204.31
2022-08-28T13:13:40.277Z,101225.13
2022-08-28T13:16:12.260Z,101204.88
2022-08-28T13:18:47.678Z,101223.19
2022-08-28T13:21:33.851Z,101232.78
2022-08-28T13:24:21.826Z,101178.81
2022-08-28T13:26:51.072Z,101181.75
2022-08-28T13:29:34.009Z,101226.34
2022-08-28T13:32:04.457Z,101195.72
2022-08-28T13:34:37.083Z,101212.41
2022-08-28T13:37:15.058Z,101171.50
2022-08-28T13:39:47.163Z,101187.94
2022-08-28T13:42:15.808Z,101199.47
2022-08-28T13:44:51.400Z,101194.28
2022-08-28T13:47:18.147Z,101188.44
2022-08-28T13:49:44.566Z,101189.22
2022-08-28T13:52:16.918Z,101163.16
2022-08-28T13:54:45.455Z,101188.34
2022-08-28T13:57:13.517Z,101176.47
2022-08-28T13:59:40.319Z,101180.41
2022-08-28T14:02:27.426Z,101191.75
2022-08-28T14:04:54.040Z,101157.69
2022-08-28T14:07:20.734Z,101196.81
2022-08-28T14:09:47.277Z,101190.34
2022-08-28T14:12:14.211Z,101174.06
2022-08-28T14:14:46.724Z,101162.13
2022-08-28T14:17:13.448Z,101131.44
2022-08-28T14:19:39.924Z,101187.41
2022-08-28T14:22:06.700Z,101160.06
2022-08-28T14:24:33.266Z,101180.63
2022-08-28T14:26:59.848Z,101177.22
2022-08-28T14:29:26.524Z,101147.28
2022-08-28T14:31:53.040Z,101179.84
2022-08-28T14:34:22.536Z,101194.47
2022-08-28T14:36:51.072Z,101166.72
2022-08-28T14:39:43.039Z,101145.06
2022-08-28T14:42:13.111Z,101161.22
2022-08-28T14:44:40.034Z,101151.34
2022-08-28T14:47:06.434Z,101163.88
2022-08-28T14:49:33.027Z,101133.28
2022-08-28T14:52:00.235Z,101125.44
2022-08-28T14:54:32.887Z,101120.00
2022-08-28T14:56:59.781Z,101125.13
2022-08-28T14:59:45.952Z,101113.41
2022-08-28T15:02:13.784Z,101101.00
2022-08-28T15:04:54.582Z,101108.66
2022-08-28T15:07:34.378Z,101111.03
2022-08-28T15:10:02.969Z,101103.19
2022-08-28T15:12:29.826Z,101150.69
2022-08-28T15:14:59.191Z,101113.22
2022-08-28T15:17:33.460Z,101109.13
2022-08-28T15:20:03.425Z,101112.06
2022-08-28T15:22:46.828Z,101109.66
2022-08-28T15:30:48.318Z,101115.25
2022-08-28T15:33:23.695Z,101142.53
2022-08-28T15:35:55.799Z,101115.63
2022-08-28T15:38:25.168Z,101096.22
2022-08-28T15:41:12.359Z,101126.50
2022-08-28T15:43:43.056Z,101098.59
2022-08-28T15:46:14.881Z,101145.88
2022-08-28T15:48:48.585Z,101135.84
2022-08-28T15:51:23.902Z,101134.28
2022-08-28T15:53:52.623Z,101128.22
2022-08-28T15:56:19.665Z,101103.47
2022-08-28T15:58:46.399Z,101099.75
2022-08-28T16:01:17.741Z,101117.81
2022-08-28T16:03:44.526Z,101090.41
2022-08-28T16:06:17.492Z,101118.91
2022-08-28T16:08:45.813Z,101094.53
2022-08-28T16:11:26.765Z,101124.63
2022-08-28T16:14:32.846Z,101148.00
2022-08-28T16:17:06.007Z,101124.78
2022-08-28T16:23:23.961Z,101104.38
2022-08-28T16:25:55.566Z,101139.44
2022-08-28T16:28:46.860Z,101146.94
2022-08-28T16:31:46.526Z,101152.03
2022-08-28T16:39:13.010Z,101109.16
2022-08-28T16:45:37.164Z,101148.28
2022-08-28T16:48:05.619Z,101152.03
2022-08-28T16:50:46.927Z,101116.78
2022-08-28T16:53:53.322Z,101149.44
2022-08-28T16:59:35.411Z,101108.59
2022-08-28T17:05:02.159Z,101162.78
2022-08-28T17:07:29.599Z,101129.44
2022-08-28T17:09:56.659Z,101165.22
2022-08-28T17:12:23.735Z,101118.47
2022-08-28T17:14:50.565Z,101140.22
2022-08-28T21:16:12.314Z,101312.44
2022-08-28T21:18:49.278Z,101300.16
2022-08-28T21:21:25.608Z,101315.97
2022-08-28T21:23:52.103Z,101308.09
2022-08-28T21:26:18.621Z,101307.13
2022-08-28T21:28:45.195Z,101309.34
2022-08-28T21:31:13.856Z,101325.28
2022-08-28T21:33:41.636Z,101306.06
2022-08-28T21:36:10.597Z,101308.09
2022-08-28T21:38:37.789Z,101308.94
2022-08-28T21:41:09.369Z,101320.78
2022-08-28T21:43:36.168Z,101308.50
2022-08-28T21:46:03.594Z,101321.28
2022-08-28T21:48:36.068Z,101310.19
2022-08-28T21:51:06.428Z,101322.78
2022-08-28T21:53:34.135Z,101316.91
2022-08-28T21:56:04.963Z,101308.50
2022-08-28T21:58:33.249Z,101325.06
2022-08-28T22:01:00.264Z,101292.66
2022-08-28T22:03:28.613Z,101297.00
2022-08-28T22:05:55.675Z,101274.50
2022-08-28T22:08:24.896Z,101280.13
2022-08-28T22:10:51.773Z,101307.91
2022-08-28T22:13:18.824Z,101323.91
2022-08-28T22:15:47.050Z,101310.31
2022-08-28T22:18:15.784Z,101318.09
2022-08-28T22:21:03.308Z,101319.75
2022-08-28T22:23:33.656Z,101332.25
2022-08-28T22:26:03.670Z,101320.78
2022-08-28T22:28:30.330Z,101343.47
2022-08-28T22:30:57.245Z,101337.72
2022-08-28T22:33:24.545Z,101345.72
2022-08-28T22:35:52.868Z,101352.19
2022-08-28T22:38:20.786Z,101323.00
2022-08-28T22:40:47.797Z,101338.16
2022-08-28T22:43:15.540Z,101339.63
2022-08-28T22:45:43.460Z,101348.13
2022-08-28T22:48:13.074Z,101342.38
2022-08-28T22:50:40.571Z,101326.63
2022-08-28T22:53:07.106Z,101326.94
2022-08-28T22:55:33.614Z,101332.16
2022-08-28T22:58:00.564Z,101307.06
2022-08-28T23:00:28.536Z,101341.16
2022-08-28T23:02:56.575Z,101347.72
2022-08-28T23:05:25.876Z,101338.22
2022-08-28T23:07:52.516Z,101336.94
2022-08-28T23:10:19.516Z,101332.97
2022-08-28T23:12:46.251Z,101316.28
2022-08-28T23:15:14.613Z,101348.59
2022-08-28T23:17:42.663Z,101339.34
2022-08-28T23:20:12.162Z,101327.13
2022-08-28T23:22:39.269Z,101337.41
2022-08-28T23:25:08.007Z,101331.44
2022-08-28T23:27:36.557Z,101339.91
2022-08-28T23:30:04.969Z,101333.06
2022-08-28T23:32:31.500Z,101310.84
2022-08-28T23:35:00.905Z,101306.75
2022-08-28T23:37:27.466Z,101339.38
2022-08-28T23:39:54.561Z,101281.06
2022-08-28T23:42:21.294Z,101326.06
2022-08-28T23:44:48.180Z,101325.13
2022-08-28T23:47:14.651Z,101326.44
2022-08-28T23:49:42.733Z,101318.41
2022-08-28T23:52:09.547Z,101336.97
2022-08-28T23:54:36.603Z,101333.34
2022-08-28T23:57:03.967Z,101319.25
2022-08-28T23:59:32.710Z,101328.72
